Sfl Yukon — VRHQ3 — position and weather

sailwx.info

Track history (hours):
 
Tides and Currents Weather Stations Pressure Air Temp Water Temp Dewpoint Dewpoint Depression Visibility Wind Speed Wind Dir Waves Ship Positions

Sfl Yukon

Last reported at 2018-Apr-20 14:29 UTC. Time now 2018-Apr-20 14:42 UTC.
Position N 27°55' W 082°26'.

Length 190 m; draft 11.7 m.

Type: Cargo ship. MMSI: 477746900.

Date/timePositionNaut miles runAvg speedWind from/ knotsBaromVisibWave heightAir tempDewpointWater temp
2018-Apr-20 14:29N 27°55' W 082°26'0 0.0
2018-Apr-20 13:59N 27°55' W 082°26'0 0.0
2018-Apr-20 13:30N 27°55' W 082°26'0 0.0
2018-Apr-20 12:59N 27°55' W 082°26'0 0.5
2018-Apr-20 12:30N 27°54' W 082°26'1 2.6
2018-Apr-20 12:00N 27°53' W 082°26'5 9.3
2018-Apr-20 11:30N 27°48' W 082°28'4 8.9
2018-Apr-20 11:00N 27°46' W 082°31'5 9.9
2018-Apr-20 10:30N 27°41' W 082°34'510.2
2018-Apr-20 10:00N 27°38' W 082°38'238 5.3
2018-Apr-18 12:52N 24°40' W 079°42'410.0
2018-Apr-18 12:30N 24°43' W 079°40'510.2
2018-Apr-18 12:00N 24°48' W 079°39'20 9.8
2018-Apr-18 10:00N 25°07' W 079°36'610.2
2018-Apr-18 09:27N 25°13' W 079°35'610.5
2018-Apr-18 08:52N 25°19' W 079°34'610.7
2018-Apr-18 08:18N 25°25' W 079°33'310.7
2018-Apr-18 08:00N 25°28' W 079°32'510.4
2018-Apr-18 07:28N 25°33' W 079°31'5 9.9
2018-Apr-18 06:58N 25°38' W 079°30'5 9.8
2018-Apr-18 06:30N 25°43' W 079°29'5 9.9
2018-Apr-18 06:00N 25°48' W 079°28'510.1
2018-Apr-18 05:30N 25°52' W 079°26'1510.9
2018-Apr-18 04:05N 26°06' W 079°17'511.3
2018-Apr-18 03:38N 26°10' W 079°15'211.2
2018-Apr-18 03:29N 26°12' W 079°14'  
Track history (hours):
 
Tides and Currents Weather Stations Pressure Air Temp Water Temp Dewpoint Dewpoint Depression Visibility Wind Speed Wind Dir Waves Ship Positions

Sfl Yukon

Last reported at 2018-Apr-20 14:29 UTC. Time now 2018-Apr-20 14:42 UTC.
Position N 27°55' W 082°26'.

Length 190 m; draft 11.7 m.

Type: Cargo ship. MMSI: 477746900.

Date/timePositionNaut miles runAvg speedWind from/ knotsBaromVisibWave heightAir tempDewpointWater temp
2018-Apr-20 14:29N 27°55' W 082°26'0 0.0
2018-Apr-20 13:59N 27°55' W 082°26'0 0.0
2018-Apr-20 13:30N 27°55' W 082°26'0 0.0
2018-Apr-20 12:59N 27°55' W 082°26'0 0.5
2018-Apr-20 12:30N 27°54' W 082°26'1 2.6
2018-Apr-20 12:00N 27°53' W 082°26'5 9.3
2018-Apr-20 11:30N 27°48' W 082°28'4 8.9
2018-Apr-20 11:00N 27°46' W 082°31'5 9.9
2018-Apr-20 10:30N 27°41' W 082°34'510.2
2018-Apr-20 10:00N 27°38' W 082°38'238 5.3
2018-Apr-18 12:52N 24°40' W 079°42'410.0
2018-Apr-18 12:30N 24°43' W 079°40'510.2
2018-Apr-18 12:00N 24°48' W 079°39'20 9.8
2018-Apr-18 10:00N 25°07' W 079°36'610.2
2018-Apr-18 09:27N 25°13' W 079°35'610.5
2018-Apr-18 08:52N 25°19' W 079°34'610.7
2018-Apr-18 08:18N 25°25' W 079°33'310.7
2018-Apr-18 08:00N 25°28' W 079°32'510.4
2018-Apr-18 07:28N 25°33' W 079°31'5 9.9
2018-Apr-18 06:58N 25°38' W 079°30'5 9.8
2018-Apr-18 06:30N 25°43' W 079°29'5 9.9
2018-Apr-18 06:00N 25°48' W 079°28'510.1
2018-Apr-18 05:30N 25°52' W 079°26'1510.9
2018-Apr-18 04:05N 26°06' W 079°17'511.3
2018-Apr-18 03:38N 26°10' W 079°15'211.2
2018-Apr-18 03:29N 26°12' W 079°14'  

Dump ship's entire track history